createdAt,value
2022-09-15T19:49:40.444Z,2.00
2022-09-15T19:52:07.186Z,2.10
2022-09-15T19:54:34.444Z,1.80
2022-09-15T19:57:01.337Z,1.40
2022-09-15T19:59:31.365Z,1.90
2022-09-15T20:01:59.035Z,1.70
2022-09-15T20:04:25.917Z,1.70
2022-09-15T20:06:52.550Z,1.70
2022-09-15T20:09:19.194Z,1.97
2022-09-15T20:11:45.882Z,1.93
2022-09-15T20:14:12.476Z,1.80
2022-09-15T20:16:39.219Z,1.90
2022-09-15T20:19:06.073Z,1.60
2022-09-15T20:21:50.715Z,1.50
2022-09-15T20:24:18.113Z,1.40
2022-09-15T20:26:44.707Z,1.50
2022-09-15T20:29:11.508Z,1.60
2022-09-15T20:31:38.099Z,1.80
2022-09-15T20:34:04.721Z,1.57
2022-09-15T20:36:33.411Z,1.50
2022-09-15T20:39:00.554Z,1.87
2022-09-15T20:41:28.205Z,1.43
2022-09-15T20:43:54.898Z,1.17
2022-09-15T20:46:22.464Z,1.53
2022-09-15T20:48:50.361Z,1.10
2022-09-15T20:51:22.678Z,1.43
2022-09-15T20:53:50.654Z,1.20
2022-09-15T20:56:17.721Z,1.03
2022-09-15T20:58:44.373Z,1.30
2022-09-15T21:01:13.109Z,1.27
2022-09-15T21:03:40.594Z,1.10
2022-09-15T21:06:08.897Z,1.27
2022-09-15T21:08:35.811Z,1.10
2022-09-15T21:11:02.796Z,1.30
2022-09-15T21:13:30.192Z,1.20
2022-09-15T21:16:02.103Z,1.10
2022-09-15T21:18:32.521Z,1.40
2022-09-15T21:21:09.415Z,1.50
2022-09-15T21:23:41.270Z,1.20
2022-09-15T21:26:09.769Z,1.40
2022-09-15T21:28:36.459Z,1.30
2022-09-15T21:31:10.535Z,1.37
2022-09-15T21:33:37.355Z,1.10
2022-09-15T21:36:08.009Z,1.20
2022-09-15T21:38:35.100Z,1.33
2022-09-15T21:41:01.824Z,1.30
2022-09-15T21:43:32.124Z,1.47
2022-09-15T21:45:59.060Z,1.40
2022-09-15T21:48:27.157Z,1.40
2022-09-15T21:50:53.939Z,1.40
2022-09-15T21:53:20.968Z,1.37
2022-09-15T21:55:50.349Z,0.90
2022-09-15T21:58:21.910Z,1.30
2022-09-15T22:00:49.009Z,1.30
2022-09-15T22:03:16.162Z,1.30
2022-09-15T22:05:43.875Z,1.70
2022-09-15T22:08:11.198Z,1.30
2022-09-15T22:10:38.022Z,1.83
2022-09-15T22:13:05.284Z,1.53
2022-09-15T22:15:32.443Z,1.10
2022-09-15T22:17:59.179Z,1.17
2022-09-15T22:20:25.896Z,1.10
2022-09-15T22:22:52.494Z,1.40
2022-09-15T22:25:21.921Z,1.40
2022-09-15T22:27:48.756Z,1.10
2022-09-15T22:30:15.406Z,1.40
2022-09-15T22:32:42.021Z,1.30
2022-09-15T22:35:08.843Z,1.27
2022-09-15T22:37:35.539Z,1.23
2022-09-15T22:40:02.398Z,1.17
2022-09-15T22:42:29.041Z,1.20
2022-09-15T22:44:55.612Z,1.03
2022-09-15T22:47:22.203Z,1.37
2022-09-15T22:49:48.774Z,1.10
2022-09-15T22:52:15.405Z,1.10
2022-09-15T22:54:41.989Z,1.10
2022-09-15T22:57:08.590Z,1.20
2022-09-15T22:59:35.184Z,1.33
2022-09-15T23:02:01.855Z,1.03
2022-09-15T23:04:28.669Z,1.30
2022-09-15T23:06:55.266Z,1.00
2022-09-15T23:09:21.846Z,1.00
2022-09-15T23:11:48.440Z,1.10
2022-09-15T23:14:16.198Z,1.13
2022-09-15T23:16:43.237Z,1.10
2022-09-15T23:19:12.233Z,1.03
2022-09-15T23:21:38.879Z,1.00
2022-09-15T23:24:05.662Z,1.00
2022-09-15T23:26:32.386Z,1.33
2022-09-15T23:28:58.973Z,1.20
2022-09-15T23:31:25.715Z,1.30
2022-09-15T23:33:52.339Z,1.20
2022-09-15T23:36:21.859Z,1.40
2022-09-15T23:38:48.766Z,1.33
2022-09-15T23:41:15.791Z,1.07
2022-09-15T23:43:42.386Z,1.30
2022-09-15T23:46:09.306Z,1.17
2022-09-15T23:48:36.195Z,1.20
2022-09-15T23:51:02.992Z,1.17
2022-09-15T23:53:29.677Z,1.00
2022-09-15T23:55:56.387Z,1.20
2022-09-15T23:58:22.977Z,1.10
